Time;durP1;ratioP1;P1;durP2;ratioP2;P2;SDS_P1;SDS_P2;PMS_P1;PMS_P2;Temp;Humidity;BMP_temperature;BMP_pressure;BME280_temperature;BME280_humidity;BME280_pressure;Samples;Min_cycle;Max_cycle;Signal;HPM_P1;HPM_P2
2023/10/27 00:01:10;;;;;;;127.50;40.23;;;;;;;;;;5071804;28;20049;-60
2023/10/27 00:03:36;;;;;;;135.13;42.73;;;;;;;;;;5072174;28;20097;-60
2023/10/27 00:06:02;;;;;;;144.70;43.97;;;;;;;;;;5071985;28;20048;-60
2023/10/27 00:08:28;;;;;;;141.77;42.20;;;;;;;;;;5072072;28;20037;-59
2023/10/27 00:10:55;;;;;;;134.73;42.40;;;;;;;;;;5064588;28;20052;-60
2023/10/27 00:13:21;;;;;;;132.90;41.27;;;;;;;;;;5051815;28;20049;-60
2023/10/27 00:15:47;;;;;;;133.47;40.37;;;;;;;;;;5068740;28;20055;-60
2023/10/27 00:18:13;;;;;;;129.17;40.67;;;;;;;;;;5072058;28;20049;-60
2023/10/27 00:20:39;;;;;;;124.50;40.47;;;;;;;;;;5071360;28;20043;-60
2023/10/27 00:23:05;;;;;;;130.57;41.40;;;;;;;;;;5070127;28;20041;-59
2023/10/27 00:25:31;;;;;;;119.97;38.50;;;;;;;;;;5071412;28;20099;-60
2023/10/27 00:27:57;;;;;;;130.43;40.77;;;;;;;;;;5071302;28;20045;-59
2023/10/27 00:30:23;;;;;;;126.40;38.57;;;;;;;;;;5071879;28;20044;-60
2023/10/27 00:32:49;;;;;;;136.00;41.87;;;;;;;;;;5071687;28;20400;-60
2023/10/27 00:35:15;;;;;;;121.10;39.03;;;;;;;;;;5067796;28;20055;-60
2023/10/27 00:37:41;;;;;;;123.47;41.07;;;;;;;;;;5068228;28;20135;-59
2023/10/27 00:40:08;;;;;;;114.77;38.03;;;;;;;;;;5058384;28;20474;-60
2023/10/27 00:42:34;;;;;;;114.77;36.47;;;;;;;;;;5051119;28;20059;-60
2023/10/27 00:45:00;;;;;;;122.93;37.37;;;;;;;;;;5051354;28;20048;-60
2023/10/27 00:47:26;;;;;;;112.47;37.40;;;;;;;;;;5051082;28;20041;-60
2023/10/27 00:49:54;;;;;;;114.60;37.70;;;;;;;;;;5055645;28;20036;-60
2023/10/27 00:52:20;;;;;;;105.17;37.60;;;;;;;;;;5071321;28;20076;-60
2023/10/27 00:54:47;;;;;;;112.23;37.00;;;;;;;;;;5071364;28;20064;-60
2023/10/27 00:57:14;;;;;;;125.10;39.73;;;;;;;;;;5069435;28;20086;-60
2023/10/27 00:59:41;;;;;;;114.33;37.67;;;;;;;;;;5052999;28;20073;-60
2023/10/27 01:02:07;;;;;;;120.50;38.37;;;;;;;;;;5052217;28;20106;-60
2023/10/27 01:04:33;;;;;;;117.57;36.13;;;;;;;;;;5065840;28;20400;-59
2023/10/27 01:06:59;;;;;;;106.60;34.77;;;;;;;;;;5051053;28;20057;-60
2023/10/27 01:09:25;;;;;;;102.63;35.43;;;;;;;;;;5049465;28;20418;-60
2023/10/27 01:11:51;;;;;;;107.77;35.77;;;;;;;;;;5050482;28;20666;-60
2023/10/27 01:14:18;;;;;;;105.40;37.20;;;;;;;;;;5050905;28;20045;-60
2023/10/27 01:16:44;;;;;;;103.27;35.20;;;;;;;;;;5050543;28;20049;-60
2023/10/27 01:19:10;;;;;;;92.83;33.80;;;;;;;;;;5053804;28;20426;-59
2023/10/27 01:21:36;;;;;;;85.13;33.23;;;;;;;;;;5062788;28;20041;-60
2023/10/27 01:24:04;;;;;;;94.40;33.83;;;;;;;;;;5050390;28;20059;-60
2023/10/27 01:26:30;;;;;;;91.03;32.57;;;;;;;;;;5054785;28;20527;-60
2023/10/27 01:28:56;;;;;;;92.53;32.90;;;;;;;;;;5070027;28;20040;-60
2023/10/27 01:31:23;;;;;;;89.30;32.57;;;;;;;;;;5068515;28;20542;-60
2023/10/27 01:33:49;;;;;;;88.13;33.07;;;;;;;;;;5070068;28;20143;-60
2023/10/27 01:36:15;;;;;;;85.87;31.63;;;;;;;;;;5068796;28;20041;-60
2023/10/27 01:38:41;;;;;;;78.93;30.03;;;;;;;;;;5070061;28;20060;-60
2023/10/27 01:41:07;;;;;;;82.03;31.73;;;;;;;;;;5070489;28;20052;-60
2023/10/27 01:43:32;;;;;;;77.83;31.47;;;;;;;;;;5067768;28;20048;-60
2023/10/27 01:45:58;;;;;;;84.47;33.20;;;;;;;;;;5050098;28;20110;-60
2023/10/27 01:48:24;;;;;;;81.47;33.37;;;;;;;;;;5050352;28;20037;-60
2023/10/27 01:50:50;;;;;;;81.60;32.07;;;;;;;;;;5050405;28;20041;-60
2023/10/27 01:53:16;;;;;;;82.93;32.43;;;;;;;;;;5050292;28;20095;-59
2023/10/27 01:55:42;;;;;;;82.43;31.70;;;;;;;;;;5049348;28;20130;-60
2023/10/27 01:58:09;;;;;;;84.33;31.37;;;;;;;;;;5067306;28;20491;-60
2023/10/27 02:00:36;;;;;;;78.10;32.07;;;;;;;;;;5056784;28;20623;-60
2023/10/27 02:03:02;;;;;;;82.50;31.37;;;;;;;;;;5049825;28;20072;-59
2023/10/27 02:05:28;;;;;;;80.70;29.97;;;;;;;;;;5049702;28;20045;-60
2023/10/27 02:07:54;;;;;;;78.57;31.00;;;;;;;;;;5049235;28;20449;-60
2023/10/27 02:10:20;;;;;;;68.80;27.50;;;;;;;;;;5049803;28;20040;-60
2023/10/27 02:12:46;;;;;;;74.33;28.77;;;;;;;;;;5049413;28;20056;-60
2023/10/27 02:15:12;;;;;;;70.93;28.20;;;;;;;;;;5052499;28;20058;-60
2023/10/27 02:17:39;;;;;;;65.13;27.00;;;;;;;;;;5049716;28;20041;-60
2023/10/27 02:20:06;;;;;;;71.17;28.30;;;;;;;;;;5049616;28;20041;-60
2023/10/27 02:22:32;;;;;;;60.80;27.10;;;;;;;;;;5049447;28;20044;-60
2023/10/27 02:24:58;;;;;;;65.27;26.60;;;;;;;;;;5049281;28;20045;-60
2023/10/27 02:27:24;;;;;;;68.20;28.90;;;;;;;;;;5058714;28;20055;-60
2023/10/27 02:29:50;;;;;;;62.80;27.13;;;;;;;;;;5049934;28;20040;-60
2023/10/27 02:32:16;;;;;;;61.80;25.97;;;;;;;;;;5049299;28;20049;-60
2023/10/27 02:34:42;;;;;;;69.33;27.90;;;;;;;;;;5050877;28;20446;-61
2023/10/27 02:37:08;;;;;;;66.77;28.60;;;;;;;;;;5069338;28;20124;-62
2023/10/27 02:39:34;;;;;;;72.27;27.23;;;;;;;;;;5069245;28;20092;-60
2023/10/27 02:42:00;;;;;;;57.03;24.80;;;;;;;;;;5069298;28;20044;-60
2023/10/27 02:44:26;;;;;;;65.50;27.17;;;;;;;;;;5052944;28;20048;-60
2023/10/27 02:46:52;;;;;;;66.03;26.07;;;;;;;;;;5049198;28;20048;-60
2023/10/27 02:49:18;;;;;;;63.57;27.00;;;;;;;;;;5048826;28;20045;-60
2023/10/27 02:51:44;;;;;;;69.57;28.77;;;;;;;;;;5048688;28;20045;-60
2023/10/27 02:54:10;;;;;;;59.07;26.30;;;;;;;;;;5068937;28;20526;-60
2023/10/27 02:56:36;;;;;;;60.10;26.30;;;;;;;;;;5065040;28;20041;-60
2023/10/27 02:59:03;;;;;;;65.93;27.37;;;;;;;;;;5063338;28;20517;-60
2023/10/27 03:01:30;;;;;;;65.40;28.10;;;;;;;;;;5069341;28;20044;-60
2023/10/27 03:03:56;;;;;;;68.20;29.10;;;;;;;;;;5068783;28;20094;-60
2023/10/27 03:06:22;;;;;;;60.93;27.73;;;;;;;;;;5068756;28;20068;-60
2023/10/27 03:08:49;;;;;;;61.13;27.50;;;;;;;;;;5069212;28;20041;-60
2023/10/27 03:11:15;;;;;;;62.13;25.63;;;;;;;;;;5068927;28;20049;-61
2023/10/27 03:13:41;;;;;;;71.70;28.40;;;;;;;;;;5055003;28;20049;-60
2023/10/27 03:16:07;;;;;;;71.50;29.23;;;;;;;;;;5048545;28;20037;-60
2023/10/27 03:18:33;;;;;;;69.93;28.80;;;;;;;;;;5049099;28;20087;-60
2023/10/27 03:21:00;;;;;;;70.73;29.70;;;;;;;;;;5048817;28;20144;-60
2023/10/27 03:23:26;;;;;;;73.47;30.03;;;;;;;;;;5048460;28;20049;-60
2023/10/27 03:25:53;;;;;;;77.03;29.23;;;;;;;;;;5048457;28;20041;-60
2023/10/27 03:28:20;;;;;;;65.87;27.97;;;;;;;;;;5052202;28;20049;-60
2023/10/27 03:30:48;;;;;;;70.17;28.63;;;;;;;;;;5048528;28;20136;-60
2023/10/27 03:33:14;;;;;;;71.80;29.57;;;;;;;;;;5050738;28;20075;-60
2023/10/27 03:35:43;;;;;;;73.53;28.30;;;;;;;;;;5063450;28;20376;-60
2023/10/27 03:38:10;;;;;;;63.77;27.57;;;;;;;;;;5071599;28;20518;-60
2023/10/27 03:40:40;;;;;;;64.47;27.80;;;;;;;;;;5069313;28;20051;-60
2023/10/27 03:43:06;;;;;;;65.27;26.93;;;;;;;;;;5059962;28;20459;-60
2023/10/27 03:45:34;;;;;;;66.17;27.93;;;;;;;;;;5072079;28;20094;-60
2023/10/27 03:47:59;;;;;;;69.07;29.10;;;;;;;;;;5072026;28;20379;-60
2023/10/27 03:50:25;;;;;;;69.20;27.60;;;;;;;;;;5072340;28;20168;-60
2023/10/27 03:52:51;;;;;;;66.40;28.47;;;;;;;;;;5072314;28;20047;-60
2023/10/27 03:55:17;;;;;;;59.97;26.50;;;;;;;;;;5068710;28;20050;-60
2023/10/27 03:57:43;;;;;;;59.40;25.83;;;;;;;;;;5062612;28;20450;-60
2023/10/27 04:00:10;;;;;;;59.60;25.80;;;;;;;;;;5071611;28;20047;-60
2023/10/27 04:02:36;;;;;;;63.60;27.27;;;;;;;;;;5059080;28;20052;-60
2023/10/27 04:05:05;;;;;;;64.60;27.30;;;;;;;;;;5052419;28;20041;-60
2023/10/27 04:07:31;;;;;;;55.20;26.40;;;;;;;;;;5051900;28;20128;-60
2023/10/27 04:09:57;;;;;;;59.50;26.67;;;;;;;;;;5052653;28;20131;-60
2023/10/27 04:12:23;;;;;;;53.23;24.37;;;;;;;;;;5072119;28;20043;-60
2023/10/27 04:14:49;;;;;;;54.97;25.10;;;;;;;;;;5071912;28;20040;-60
2023/10/27 04:17:15;;;;;;;53.57;25.20;;;;;;;;;;5071757;28;20133;-60
2023/10/27 04:19:45;;;;;;;53.07;25.23;;;;;;;;;;5071673;28;20040;-60
2023/10/27 04:22:11;;;;;;;51.67;24.17;;;;;;;;;;5071454;28;20044;-60
2023/10/27 04:24:38;;;;;;;56.67;24.83;;;;;;;;;;5070517;28;20051;-60
2023/10/27 04:27:04;;;;;;;52.27;25.23;;;;;;;;;;5051089;28;20487;-60
2023/10/27 04:29:31;;;;;;;54.20;25.87;;;;;;;;;;5051527;28;20041;-60
2023/10/27 04:31:57;;;;;;;52.07;24.63;;;;;;;;;;5049409;28;20041;-60
2023/10/27 04:34:23;;;;;;;56.57;25.60;;;;;;;;;;5051406;28;20107;-60
2023/10/27 04:36:49;;;;;;;53.00;25.37;;;;;;;;;;5051745;28;20044;-60
2023/10/27 04:39:15;;;;;;;55.67;26.13;;;;;;;;;;5065463;28;20086;-60
2023/10/27 04:41:41;;;;;;;54.40;25.87;;;;;;;;;;5052332;28;20076;-60
2023/10/27 04:44:08;;;;;;;50.37;25.57;;;;;;;;;;5050731;28;20077;-60
2023/10/27 04:46:34;;;;;;;54.23;25.30;;;;;;;;;;5051222;28;20499;-60
2023/10/27 04:49:00;;;;;;;55.57;24.53;;;;;;;;;;5051714;28;20040;-60
2023/10/27 04:51:26;;;;;;;56.53;24.67;;;;;;;;;;5051341;28;20514;-59
2023/10/27 04:53:53;;;;;;;47.53;23.63;;;;;;;;;;5050291;28;20527;-60
2023/10/27 04:56:19;;;;;;;52.93;23.30;;;;;;;;;;5050419;28;20135;-60
2023/10/27 04:58:46;;;;;;;55.47;24.17;;;;;;;;;;5050814;28;20088;-60
2023/10/27 05:01:13;;;;;;;53.77;24.33;;;;;;;;;;5051048;28;20063;-60
2023/10/27 05:03:38;;;;;;;53.93;24.83;;;;;;;;;;5050028;28;20083;-60
2023/10/27 05:06:11;;;;;;;49.70;23.43;;;;;;;;;;5050952;28;20095;-60
2023/10/27 05:08:37;;;;;;;47.53;23.10;;;;;;;;;;5063547;28;20049;-60
2023/10/27 05:11:03;;;;;;;54.03;23.97;;;;;;;;;;5069315;28;20098;-59
2023/10/27 05:13:30;;;;;;;49.80;23.20;;;;;;;;;;5070670;28;20055;-60
2023/10/27 05:15:56;;;;;;;49.37;23.43;;;;;;;;;;5070290;28;20056;-60
2023/10/27 05:18:22;;;;;;;50.47;24.00;;;;;;;;;;5061292;28;20411;-60
2023/10/27 05:20:48;;;;;;;51.00;24.13;;;;;;;;;;5050619;28;20045;-60
2023/10/27 05:23:14;;;;;;;48.63;23.37;;;;;;;;;;5062285;28;20484;-60
2023/10/27 05:25:40;;;;;;;50.50;23.10;;;;;;;;;;5069338;28;20175;-60
2023/10/27 05:28:07;;;;;;;48.37;23.27;;;;;;;;;;5067433;28;20090;-60
2023/10/27 05:30:37;;;;;;;46.97;22.37;;;;;;;;;;5054600;28;20503;-60
2023/10/27 05:33:03;;;;;;;51.27;23.57;;;;;;;;;;5052003;28;20051;-60
2023/10/27 05:35:29;;;;;;;50.93;23.00;;;;;;;;;;5052249;28;20066;-60
2023/10/27 05:37:55;;;;;;;50.20;25.03;;;;;;;;;;5067571;28;20707;-60
2023/10/27 05:40:23;;;;;;;51.57;24.77;;;;;;;;;;5070752;28;20118;-60
2023/10/27 05:42:49;;;;;;;46.97;23.03;;;;;;;;;;5070714;28;20044;-60
2023/10/27 05:45:15;;;;;;;51.53;24.27;;;;;;;;;;5070489;28;20059;-61
2023/10/27 05:47:41;;;;;;;48.73;24.10;;;;;;;;;;5069997;28;20457;-60
2023/10/27 05:50:07;;;;;;;46.67;23.73;;;;;;;;;;5070520;28;20143;-60
2023/10/27 05:52:33;;;;;;;47.13;23.53;;;;;;;;;;5070150;28;20414;-60
2023/10/27 05:54:59;;;;;;;49.63;24.93;;;;;;;;;;5061963;28;20086;-60
2023/10/27 05:57:25;;;;;;;48.50;24.83;;;;;;;;;;5048668;28;20056;-60
2023/10/27 05:59:51;;;;;;;49.97;24.47;;;;;;;;;;5049871;28;20052;-60
2023/10/27 06:02:17;;;;;;;52.33;24.67;;;;;;;;;;5049741;28;20068;-60
2023/10/27 06:04:43;;;;;;;51.67;24.97;;;;;;;;;;5049706;28;20522;-60
2023/10/27 06:07:09;;;;;;;49.77;24.77;;;;;;;;;;5050264;28;20040;-60
2023/10/27 06:09:36;;;;;;;51.97;25.73;;;;;;;;;;5055550;28;20056;-60
2023/10/27 06:12:02;;;;;;;49.47;25.03;;;;;;;;;;5069591;28;20047;-60
2023/10/27 06:14:28;;;;;;;55.70;27.17;;;;;;;;;;5069513;28;20044;-60
2023/10/27 06:16:54;;;;;;;49.17;25.17;;;;;;;;;;5069791;28;20123;-60
2023/10/27 06:19:20;;;;;;;52.43;26.13;;;;;;;;;;5069740;28;20044;-65
2023/10/27 06:21:47;;;;;;;55.77;26.33;;;;;;;;;;5069533;28;20414;-62
2023/10/27 06:24:13;;;;;;;58.33;26.27;;;;;;;;;;5053193;28;20067;-63
2023/10/27 06:26:39;;;;;;;60.53;28.67;;;;;;;;;;5048888;28;20071;-60
2023/10/27 06:29:05;;;;;;;56.07;28.53;;;;;;;;;;5056992;28;20029;-60
2023/10/27 06:31:31;;;;;;;57.47;28.07;;;;;;;;;;5062181;28;20514;-60
2023/10/27 06:33:57;;;;;;;57.23;28.77;;;;;;;;;;5068550;28;20044;-60
2023/10/27 06:36:25;;;;;;;72.23;31.50;;;;;;;;;;5049301;28;20051;-60
2023/10/27 06:38:51;;;;;;;69.37;31.30;;;;;;;;;;5049012;28;20243;-60
2023/10/27 06:41:17;;;;;;;66.70;31.90;;;;;;;;;;5050481;28;20123;-60
2023/10/27 06:43:43;;;;;;;65.97;29.80;;;;;;;;;;5057741;28;20041;-60
2023/10/27 06:46:09;;;;;;;68.10;30.10;;;;;;;;;;5047200;28;20090;-60
2023/10/27 06:48:35;;;;;;;66.43;31.90;;;;;;;;;;5049229;28;20165;-60
2023/10/27 06:51:01;;;;;;;67.53;32.33;;;;;;;;;;5056615;28;20103;-60
2023/10/27 06:53:28;;;;;;;67.63;31.00;;;;;;;;;;5058689;28;20536;-60
2023/10/27 06:55:54;;;;;;;68.77;31.87;;;;;;;;;;5068876;28;20048;-61
2023/10/27 06:58:20;;;;;;;69.13;29.60;;;;;;;;;;5068523;28;20086;-61
2023/10/27 07:00:46;;;;;;;68.00;30.67;;;;;;;;;;5069229;28;20126;-60
2023/10/27 07:03:12;;;;;;;68.47;29.67;;;;;;;;;;5069209;28;20142;-60
2023/10/27 07:05:38;;;;;;;66.07;28.83;;;;;;;;;;5068142;28;20299;-60
2023/10/27 07:08:05;;;;;;;64.20;30.67;;;;;;;;;;5052241;28;20051;-60
2023/10/27 07:10:31;;;;;;;58.83;27.43;;;;;;;;;;5052989;28;20149;-60
2023/10/27 07:12:57;;;;;;;69.43;31.53;;;;;;;;;;5052952;28;20084;-60
2023/10/27 07:15:23;;;;;;;65.77;31.10;;;;;;;;;;5053039;28;20060;-60
2023/10/27 07:17:49;;;;;;;65.10;30.40;;;;;;;;;;5052329;28;20056;-60
2023/10/27 07:20:15;;;;;;;60.90;28.93;;;;;;;;;;5064194;28;20805;-61
2023/10/27 07:22:41;;;;;;;70.83;30.90;;;;;;;;;;5070131;28;20080;-61
2023/10/27 07:25:07;;;;;;;67.13;30.17;;;;;;;;;;5059050;28;20137;-60
2023/10/27 07:27:34;;;;;;;64.90;30.57;;;;;;;;;;5068348;28;20048;-60
2023/10/27 07:30:00;;;;;;;71.87;30.47;;;;;;;;;;5070568;28;20036;-60
2023/10/27 07:32:25;;;;;;;71.27;29.53;;;;;;;;;;5066700;28;20032;-60
2023/10/27 07:34:52;;;;;;;70.33;29.53;;;;;;;;;;5060318;28;20447;-60
2023/10/27 07:37:20;;;;;;;74.03;31.40;;;;;;;;;;5067993;28;20041;-60
2023/10/27 07:39:46;;;;;;;74.50;30.63;;;;;;;;;;5050273;28;20693;-60
2023/10/27 07:42:13;;;;;;;73.57;31.33;;;;;;;;;;5051837;28;20562;-60
2023/10/27 07:44:39;;;;;;;69.93;30.77;;;;;;;;;;5068764;28;20110;-60
2023/10/27 07:47:05;;;;;;;69.07;29.40;;;;;;;;;;5065085;28;20045;-60
2023/10/27 07:49:31;;;;;;;65.50;28.03;;;;;;;;;;5051453;28;20136;-60
2023/10/27 07:51:58;;;;;;;68.10;30.17;;;;;;;;;;5053136;28;20136;-60
2023/10/27 07:54:23;;;;;;;73.07;31.17;;;;;;;;;;5057356;28;20048;-60
2023/10/27 07:56:49;;;;;;;69.77;30.53;;;;;;;;;;5070883;28;20478;-60
2023/10/27 07:59:15;;;;;;;76.67;31.67;;;;;;;;;;5071598;28;20041;-60
2023/10/27 08:01:42;;;;;;;73.50;30.47;;;;;;;;;;5051888;28;20041;-60
2023/10/27 08:04:08;;;;;;;82.03;33.17;;;;;;;;;;5050610;28;20044;-60
2023/10/27 08:06:33;;;;;;;79.60;33.20;;;;;;;;;;5051976;28;20056;-60
2023/10/27 08:09:00;;;;;;;74.50;32.90;;;;;;;;;;5051346;28;20043;-60
2023/10/27 08:11:26;;;;;;;83.57;34.10;;;;;;;;;;5051425;28;20056;-60
2023/10/27 08:13:51;;;;;;;76.77;31.87;;;;;;;;;;5051645;28;20045;-60
2023/10/27 08:16:17;;;;;;;82.07;33.83;;;;;;;;;;5052504;28;20547;-61
2023/10/27 08:18:46;;;;;;;72.47;32.80;;;;;;;;;;5050315;28;20041;-60
2023/10/27 08:21:12;;;;;;;74.40;31.80;;;;;;;;;;5052047;28;20048;-60
2023/10/27 08:23:38;;;;;;;74.67;32.20;;;;;;;;;;5051192;28;20081;-60
2023/10/27 08:26:04;;;;;;;73.80;32.27;;;;;;;;;;5051171;28;20178;-60
2023/10/27 08:28:30;;;;;;;76.40;31.63;;;;;;;;;;5051421;28;20151;-60
2023/10/27 08:30:56;;;;;;;71.93;32.27;;;;;;;;;;5066850;28;20904;-60
2023/10/27 08:33:22;;;;;;;78.57;32.30;;;;;;;;;;5051688;28;20045;-60
2023/10/27 08:35:48;;;;;;;71.63;30.80;;;;;;;;;;5051197;28;20041;-60
2023/10/27 08:38:14;;;;;;;73.43;31.30;;;;;;;;;;5050798;28;20064;-60
2023/10/27 08:40:40;;;;;;;82.13;33.07;;;;;;;;;;5050581;28;20045;-60
2023/10/27 08:43:06;;;;;;;76.77;31.63;;;;;;;;;;5051089;28;20430;-60
2023/10/27 08:45:34;;;;;;;72.33;30.43;;;;;;;;;;5050739;28;20735;-60
2023/10/27 08:48:03;;;;;;;71.17;29.67;;;;;;;;;;5050618;28;20091;-61
2023/10/27 08:50:29;;;;;;;80.43;29.60;;;;;;;;;;5050872;28;20052;-61
2023/10/27 08:52:55;;;;;;;71.77;28.03;;;;;;;;;;5050920;28;20766;-61
2023/10/27 08:55:21;;;;;;;73.67;29.73;;;;;;;;;;5050765;28;20129;-61
2023/10/27 08:57:47;;;;;;;79.87;31.17;;;;;;;;;;5050993;28;20762;-61
2023/10/27 09:00:14;;;;;;;78.33;30.00;;;;;;;;;;5050464;28;20045;-62
2023/10/27 09:02:40;;;;;;;87.80;32.60;;;;;;;;;;5050603;28;20040;-62
2023/10/27 09:05:09;;;;;;;77.50;30.43;;;;;;;;;;5050330;28;20053;-62
2023/10/27 09:07:36;;;;;;;77.53;29.50;;;;;;;;;;5051100;28;20755;-62
2023/10/27 09:10:04;;;;;;;81.93;30.37;;;;;;;;;;5051013;28;20045;-62
2023/10/27 09:12:31;;;;;;;66.13;27.53;;;;;;;;;;5050285;28;20045;-62
2023/10/27 09:15:00;;;;;;;85.27;30.43;;;;;;;;;;5050384;28;20048;-62
2023/10/27 09:17:29;;;;;;;72.60;28.00;;;;;;;;;;5050540;28;20073;-62
2023/10/27 09:20:05;;;;;;;78.20;27.53;;;;;;;;;;5049838;28;20076;-62
2023/10/27 09:22:31;;;;;;;72.50;28.50;;;;;;;;;;5050391;28;20036;-62
2023/10/27 09:25:13;;;;;;;57.43;26.17;;;;;;;;;;5050389;28;20501;-62
2023/10/27 09:27:43;;;;;;;82.00;29.00;;;;;;;;;;5049903;28;20048;-63
2023/10/27 09:30:12;;;;;;;70.17;26.67;;;;;;;;;;5049416;28;20071;-62
2023/10/27 09:32:40;;;;;;;83.17;28.77;;;;;;;;;;5049843;28;20090;-62
2023/10/27 09:35:10;;;;;;;72.00;28.07;;;;;;;;;;5050437;28;20049;-62
2023/10/27 09:37:41;;;;;;;77.70;28.30;;;;;;;;;;5049482;28;20037;-62
2023/10/27 09:40:09;;;;;;;84.37;29.23;;;;;;;;;;5049911;28;20078;-62
2023/10/27 09:42:37;;;;;;;68.03;26.97;;;;;;;;;;5060627;28;20052;-62
2023/10/27 09:45:07;;;;;;;79.20;29.50;;;;;;;;;;5054237;28;20148;-62
2023/10/27 09:47:39;;;;;;;99.03;29.23;;;;;;;;;;5049838;28;20091;-62
2023/10/27 09:50:09;;;;;;;96.27;30.03;;;;;;;;;;5050074;28;20053;-62
2023/10/27 09:52:35;;;;;;;94.73;30.13;;;;;;;;;;5049433;28;20068;-62
2023/10/27 09:55:02;;;;;;;93.53;29.30;;;;;;;;;;5049809;28;20045;-62
2023/10/27 09:57:29;;;;;;;119.13;34.27;;;;;;;;;;5049917;28;20076;-63
2023/10/27 09:59:58;;;;;;;78.03;28.23;;;;;;;;;;5048982;28;20565;-62
2023/10/27 10:02:25;;;;;;;129.03;34.90;;;;;;;;;;5049426;28;20140;-62
2023/10/27 10:04:51;;;;;;;142.33;35.20;;;;;;;;;;5049757;28;20084;-62
2023/10/27 10:07:32;;;;;;;98.53;30.80;;;;;;;;;;5049281;28;20114;-62
2023/10/27 10:10:17;;;;;;;96.73;30.80;;;;;;;;;;5049306;28;20084;-62
2023/10/27 10:13:05;;;;;;;115.70;33.70;;;;;;;;;;5065144;28;20048;-62
2023/10/27 10:15:32;;;;;;;135.03;37.43;;;;;;;;;;5069050;28;20052;-63
2023/10/27 10:18:02;;;;;;;108.53;34.00;;;;;;;;;;5069126;28;20056;-62
2023/10/27 10:23:40;;;;;;;83.67;30.50;;;;;;;;;;5064408;28;20135;-62
2023/10/27 10:26:06;;;;;;;103.00;32.33;;;;;;;;;;5049485;28;20049;-62
2023/10/27 10:28:41;;;;;;;120.97;33.00;;;;;;;;;;5049106;28;20037;-62
2023/10/27 10:31:06;;;;;;;70.57;27.67;;;;;;;;;;5049331;28;20056;-63
2023/10/27 10:33:34;;;;;;;111.67;31.23;;;;;;;;;;5049006;28;20037;-62
2023/10/27 10:36:14;;;;;;;162.90;38.17;;;;;;;;;;5048730;28;20049;-62
2023/10/27 10:38:41;;;;;;;103.97;30.80;;;;;;;;;;5048648;28;20100;-63
2023/10/27 10:41:07;;;;;;;88.03;27.33;;;;;;;;;;5048117;28;20102;-62
2023/10/27 10:43:36;;;;;;;95.10;29.33;;;;;;;;;;5066303;28;20045;-62
2023/10/27 10:46:13;;;;;;;85.80;27.47;;;;;;;;;;5069039;28;20528;-62
2023/10/27 10:48:44;;;;;;;65.27;23.27;;;;;;;;;;5066565;28;20052;-62
2023/10/27 10:51:12;;;;;;;74.67;24.50;;;;;;;;;;5069016;28;20052;-62
2023/10/27 10:53:38;;;;;;;108.43;28.93;;;;;;;;;;5067108;28;20056;-62
2023/10/27 10:56:04;;;;;;;91.43;27.40;;;;;;;;;;5049074;28;20048;-62
2023/10/27 10:58:34;;;;;;;92.50;28.47;;;;;;;;;;5048927;28;20084;-63
2023/10/27 11:01:03;;;;;;;85.53;29.87;;;;;;;;;;5048439;28;20048;-62
2023/10/27 11:03:31;;;;;;;105.07;27.97;;;;;;;;;;5049100;28;20052;-62
2023/10/27 11:06:01;;;;;;;66.63;24.03;;;;;;;;;;5048772;28;20075;-62
2023/10/27 11:08:28;;;;;;;66.80;23.53;;;;;;;;;;5048282;28;20419;-63
2023/10/27 11:11:01;;;;;;;204.23;39.87;;;;;;;;;;5048873;28;20060;-63
2023/10/27 11:13:27;;;;;;;167.23;34.03;;;;;;;;;;5048302;28;20098;-63
2023/10/27 11:15:53;;;;;;;124.10;31.27;;;;;;;;;;5048563;28;20124;-63
2023/10/27 11:18:19;;;;;;;106.80;29.63;;;;;;;;;;5047547;28;20083;-63
2023/10/27 11:20:47;;;;;;;138.47;32.87;;;;;;;;;;5048711;28;20090;-62
2023/10/27 11:23:14;;;;;;;117.20;29.80;;;;;;;;;;5054111;28;20076;-63
2023/10/27 11:25:41;;;;;;;86.33;26.53;;;;;;;;;;5051119;28;20053;-63
2023/10/27 11:28:19;;;;;;;66.30;22.53;;;;;;;;;;5068878;28;20040;-62
2023/10/27 11:31:02;;;;;;;119.17;32.13;;;;;;;;;;5060981;28;20122;-63
2023/10/27 11:33:29;;;;;;;172.02;37.60;;;;;;;;;;5068578;28;20040;-63
2023/10/27 11:35:58;;;;;;;86.70;27.00;;;;;;;;;;5048598;28;20136;-63
2023/10/27 11:38:30;;;;;;;119.73;30.97;;;;;;;;;;5055180;28;20052;-63
2023/10/27 11:41:08;;;;;;;92.27;27.20;;;;;;;;;;5065286;28;20054;-63
2023/10/27 11:43:34;;;;;;;76.30;25.50;;;;;;;;;;5062649;28;20314;-63
2023/10/27 11:46:08;;;;;;;103.43;29.27;;;;;;;;;;5065281;28;20418;-62
2023/10/27 11:48:34;;;;;;;116.53;32.03;;;;;;;;;;5051294;28;20064;-62
2023/10/27 11:51:00;;;;;;;69.00;24.40;;;;;;;;;;5062201;28;20150;-62
2023/10/27 11:53:26;;;;;;;75.13;25.10;;;;;;;;;;5057965;28;20043;-62
2023/10/27 11:55:52;;;;;;;107.77;28.93;;;;;;;;;;5071379;28;20050;-62
2023/10/27 11:58:18;;;;;;;63.60;24.57;;;;;;;;;;5065680;28;20110;-63
2023/10/27 12:00:44;;;;;;;203.67;40.47;;;;;;;;;;5053091;28;20081;-62
2023/10/27 12:03:10;;;;;;;108.50;29.73;;;;;;;;;;5050246;28;20041;-62
2023/10/27 12:05:36;;;;;;;50.60;22.93;;;;;;;;;;5050882;28;20074;-63
2023/10/27 12:08:02;;;;;;;91.30;26.93;;;;;;;;;;5059271;28;20116;-63
2023/10/27 12:10:28;;;;;;;62.67;22.50;;;;;;;;;;5070577;28;20529;-63
2023/10/27 12:12:54;;;;;;;63.77;23.47;;;;;;;;;;5070576;28;20056;-63
2023/10/27 12:15:20;;;;;;;54.23;22.20;;;;;;;;;;5068488;28;20048;-63
2023/10/27 12:17:46;;;;;;;130.43;31.40;;;;;;;;;;5070482;28;20449;-63
2023/10/27 12:20:12;;;;;;;77.67;27.13;;;;;;;;;;5070471;28;20083;-63
2023/10/27 12:22:43;;;;;;;88.50;27.10;;;;;;;;;;5053505;28;20423;-63
2023/10/27 12:25:09;;;;;;;69.33;24.90;;;;;;;;;;5050200;28;20049;-63
2023/10/27 12:27:35;;;;;;;66.47;26.03;;;;;;;;;;5050411;28;20492;-63
2023/10/27 12:30:01;;;;;;;83.00;26.70;;;;;;;;;;5049776;28;20045;-65
2023/10/27 12:32:32;;;;;;;72.53;26.70;;;;;;;;;;5054234;28;20036;-63
2023/10/27 12:34:58;;;;;;;68.27;26.10;;;;;;;;;;5059973;28;20128;-64
2023/10/27 12:37:25;;;;;;;61.37;23.70;;;;;;;;;;5050040;28;20093;-63
2023/10/27 12:39:53;;;;;;;49.80;21.00;;;;;;;;;;5050435;28;20190;-63
2023/10/27 12:42:19;;;;;;;59.27;22.70;;;;;;;;;;5050903;28;20045;-62
2023/10/27 12:44:45;;;;;;;53.93;21.43;;;;;;;;;;5049748;28;20045;-63
2023/10/27 12:47:11;;;;;;;52.93;21.17;;;;;;;;;;5050538;28;20041;-63
2023/10/27 12:49:40;;;;;;;83.63;27.33;;;;;;;;;;5049849;28;20116;-63
2023/10/27 12:52:07;;;;;;;68.40;24.20;;;;;;;;;;5066031;28;20459;-62
2023/10/27 12:54:36;;;;;;;62.73;22.37;;;;;;;;;;5066210;28;20140;-62
2023/10/27 12:57:02;;;;;;;53.07;21.90;;;;;;;;;;5068085;28;20475;-62
2023/10/27 12:59:28;;;;;;;77.13;24.60;;;;;;;;;;5051982;28;20048;-63
2023/10/27 13:01:54;;;;;;;42.17;18.93;;;;;;;;;;5057681;28;20044;-63
2023/10/27 13:04:20;;;;;;;66.77;22.13;;;;;;;;;;5055331;28;20494;-62
2023/10/27 13:06:47;;;;;;;48.10;19.70;;;;;;;;;;5061749;28;20055;-63
2023/10/27 13:09:12;;;;;;;53.93;19.63;;;;;;;;;;5062810;28;20780;-63
2023/10/27 13:11:38;;;;;;;54.17;20.60;;;;;;;;;;5069429;28;20143;-63
2023/10/27 13:14:04;;;;;;;42.40;18.60;;;;;;;;;;5068486;28;21016;-63
2023/10/27 13:16:30;;;;;;;38.30;18.13;;;;;;;;;;5067941;28;20040;-63
2023/10/27 13:18:56;;;;;;;59.13;20.33;;;;;;;;;;5065504;28;20052;-63
2023/10/27 13:21:22;;;;;;;44.93;19.20;;;;;;;;;;5050696;28;20036;-63
2023/10/27 13:23:49;;;;;;;43.50;19.27;;;;;;;;;;5052457;28;20127;-62
2023/10/27 13:26:15;;;;;;;50.03;20.77;;;;;;;;;;5066537;28;20426;-63
2023/10/27 13:28:41;;;;;;;69.43;22.80;;;;;;;;;;5068059;28;20052;-63
2023/10/27 13:31:07;;;;;;;47.90;19.73;;;;;;;;;;5051282;28;20522;-63
2023/10/27 13:33:33;;;;;;;55.23;20.57;;;;;;;;;;5053014;28;20033;-63
2023/10/27 13:36:00;;;;;;;65.37;21.20;;;;;;;;;;5054431;28;20086;-63
2023/10/27 13:38:27;;;;;;;52.10;19.27;;;;;;;;;;5054372;28;20057;-63
2023/10/27 13:40:53;;;;;;;52.70;20.27;;;;;;;;;;5061144;28;20167;-63
2023/10/27 13:43:21;;;;;;;50.17;19.40;;;;;;;;;;5068526;28;20048;-63
2023/10/27 13:45:47;;;;;;;55.20;20.30;;;;;;;;;;5068125;28;20510;-63
2023/10/27 13:48:14;;;;;;;58.93;19.10;;;;;;;;;;5059940;28;20146;-63
2023/10/27 13:50:40;;;;;;;47.37;18.57;;;;;;;;;;5051375;28;20045;-63
2023/10/27 13:53:08;;;;;;;48.17;18.83;;;;;;;;;;5048498;28;20510;-63
2023/10/27 13:55:35;;;;;;;38.10;17.13;;;;;;;;;;5060719;28;20511;-63
2023/10/27 13:58:02;;;;;;;50.63;19.17;;;;;;;;;;5052050;28;20422;-63
2023/10/27 14:00:29;;;;;;;48.03;19.60;;;;;;;;;;5054407;28;20051;-62
2023/10/27 14:02:56;;;;;;;68.33;20.93;;;;;;;;;;5063991;28;20486;-62
2023/10/27 14:05:23;;;;;;;47.37;18.03;;;;;;;;;;5068532;28;20418;-63
2023/10/27 14:07:49;;;;;;;42.13;18.67;;;;;;;;;;5074043;28;20601;-63
2023/10/27 14:10:15;;;;;;;58.83;20.40;;;;;;;;;;5073857;28;20044;-62
2023/10/27 14:12:43;;;;;;;51.77;19.77;;;;;;;;;;5056906;28;20041;-62
2023/10/27 14:15:13;;;;;;;46.63;18.87;;;;;;;;;;5057555;28;20418;-63